createdAt,value
2022-10-30T00:02:22.355Z,15.35
2022-10-30T00:04:48.877Z,15.33
2022-10-30T00:07:15.250Z,15.31
2022-10-30T00:09:41.663Z,15.27
2022-10-30T00:12:08.097Z,15.26
2022-10-30T00:14:34.612Z,15.24
2022-10-30T00:17:01.025Z,15.26
2022-10-30T00:19:27.439Z,15.28
2022-10-30T00:24:21.007Z,15.22
2022-10-30T00:26:48.072Z,15.23
2022-10-30T00:29:14.581Z,15.20
2022-10-30T00:31:41.339Z,15.20
2022-10-30T00:34:07.791Z,15.19
2022-10-30T00:36:34.199Z,15.21
2022-10-30T00:39:00.627Z,15.17
2022-10-30T00:41:27.191Z,15.18
2022-10-30T00:43:53.653Z,15.14
2022-10-30T00:46:39.098Z,15.11
2022-10-30T00:49:16.633Z,15.06
2022-10-30T00:51:50.552Z,15.03
2022-10-30T00:54:18.812Z,14.96
2022-10-30T00:56:48.810Z,14.85
2022-10-30T00:59:20.270Z,14.85
2022-10-30T01:01:47.922Z,14.87
2022-10-30T01:04:16.814Z,14.85
2022-10-30T01:06:48.274Z,14.81
2022-10-30T01:09:15.865Z,14.85
2022-10-30T01:11:42.368Z,14.90
2022-10-30T01:14:11.046Z,14.86
2022-10-30T01:16:55.767Z,14.90
2022-10-30T01:19:22.155Z,14.94
2022-10-30T01:22:06.858Z,14.93
2022-10-30T01:25:07.141Z,14.91
2022-10-30T01:28:18.164Z,14.86
2022-10-30T01:31:04.726Z,14.88
2022-10-30T01:33:49.840Z,14.83
2022-10-30T01:36:33.365Z,14.81
2022-10-30T01:39:07.692Z,14.78
2022-10-30T01:41:34.139Z,14.76
2022-10-30T01:44:07.520Z,14.74
2022-10-30T01:46:52.285Z,14.67
2022-10-30T01:49:43.660Z,14.64
2022-10-30T01:52:27.884Z,14.63
2022-10-30T01:55:12.581Z,14.61
2022-10-30T01:57:59.662Z,14.59
2022-10-30T02:00:27.333Z,14.64
2022-10-30T02:02:54.337Z,14.64
2022-10-30T02:05:37.768Z,14.63
2022-10-30T02:08:04.659Z,14.49
2022-10-30T02:10:33.189Z,14.49
2022-10-30T02:12:59.825Z,14.45
2022-10-30T02:15:26.478Z,14.47
2022-10-30T02:17:54.469Z,14.47
2022-10-30T02:20:21.031Z,14.33
2022-10-30T02:22:48.091Z,14.28
2022-10-30T02:25:15.234Z,14.26
2022-10-30T02:27:42.227Z,14.18
2022-10-30T02:30:09.209Z,14.10
2022-10-30T02:32:35.730Z,14.07
2022-10-30T02:35:02.156Z,14.09
2022-10-30T02:37:28.658Z,14.02
2022-10-30T02:39:55.151Z,14.03
2022-10-30T02:42:23.138Z,14.07
2022-10-30T02:44:49.710Z,14.09
2022-10-30T02:47:16.193Z,14.07
2022-10-30T02:49:42.585Z,13.97
2022-10-30T02:52:09.066Z,14.00
2022-10-30T02:54:35.899Z,13.92
2022-10-30T02:57:02.407Z,13.87
2022-10-30T02:59:29.578Z,13.98
2022-10-30T03:01:56.055Z,13.96
2022-10-30T03:04:22.538Z,13.81
2022-10-30T03:06:48.960Z,13.81
2022-10-30T03:09:15.369Z,13.78
2022-10-30T03:11:41.999Z,13.73
2022-10-30T03:14:08.494Z,13.68
2022-10-30T03:16:36.550Z,13.74
2022-10-30T03:19:04.345Z,13.79
2022-10-30T03:21:30.829Z,13.79
2022-10-30T03:23:57.282Z,13.78
2022-10-30T03:26:23.766Z,13.72
2022-10-30T03:28:50.366Z,13.67
2022-10-30T03:31:19.070Z,13.62
2022-10-30T03:33:45.735Z,13.65
2022-10-30T03:36:13.840Z,13.57
2022-10-30T03:38:40.274Z,13.50
2022-10-30T03:41:07.037Z,13.54
2022-10-30T03:43:33.789Z,13.43
2022-10-30T03:46:00.369Z,13.51
2022-10-30T03:48:28.528Z,13.45
2022-10-30T03:50:56.572Z,13.41
2022-10-30T03:53:26.059Z,13.38
2022-10-30T03:55:53.531Z,13.39
2022-10-30T03:58:19.975Z,13.35
2022-10-30T04:00:46.365Z,13.37
2022-10-30T04:03:12.770Z,13.36
2022-10-30T04:05:39.171Z,13.35
2022-10-30T04:08:10.837Z,13.25
2022-10-30T04:10:45.897Z,13.24
2022-10-30T04:13:15.377Z,13.24
2022-10-30T04:15:42.300Z,13.14
2022-10-30T04:18:13.818Z,13.18
2022-10-30T04:20:40.281Z,13.15
2022-10-30T04:23:10.407Z,13.18
2022-10-30T04:25:36.855Z,13.25
2022-10-30T04:28:03.469Z,13.19
2022-10-30T04:30:35.126Z,13.15
2022-10-30T04:33:03.525Z,13.11
2022-10-30T04:35:33.297Z,13.01
2022-10-30T04:38:02.015Z,13.06
2022-10-30T04:40:31.578Z,12.79
2022-10-30T04:42:58.790Z,12.83
2022-10-30T04:45:26.082Z,12.73
2022-10-30T04:47:53.172Z,12.82
2022-10-30T04:50:19.812Z,12.72
2022-10-30T04:52:46.265Z,12.69
2022-10-30T04:55:12.732Z,12.73
2022-10-30T04:57:39.204Z,12.72
2022-10-30T05:00:07.810Z,12.76
2022-10-30T05:02:37.619Z,12.69
2022-10-30T05:05:04.656Z,12.72
2022-10-30T05:07:31.380Z,12.71
2022-10-30T05:09:57.778Z,12.69
2022-10-30T05:12:24.181Z,12.57
2022-10-30T05:14:50.651Z,12.49
2022-10-30T05:17:17.138Z,12.50
2022-10-30T05:19:43.558Z,12.42
2022-10-30T05:22:10.432Z,12.41
2022-10-30T05:24:36.894Z,12.44
2022-10-30T05:27:03.474Z,12.41
2022-10-30T05:29:29.909Z,12.31
2022-10-30T05:31:56.363Z,12.29
2022-10-30T05:34:22.796Z,12.34
2022-10-30T05:36:49.252Z,12.41
2022-10-30T05:39:15.666Z,12.39
2022-10-30T05:41:42.085Z,12.26
2022-10-30T05:44:08.506Z,12.26
2022-10-30T05:46:34.972Z,12.23
2022-10-30T05:49:01.449Z,12.18
2022-10-30T05:51:27.996Z,12.26
2022-10-30T05:53:54.430Z,12.26
2022-10-30T05:56:20.839Z,12.24
2022-10-30T05:58:50.118Z,12.23
2022-10-30T06:01:17.328Z,12.33
2022-10-30T06:03:44.107Z,12.25
2022-10-30T06:06:10.843Z,12.24
2022-10-30T06:08:37.625Z,12.19
2022-10-30T06:11:04.074Z,12.08
2022-10-30T06:13:30.478Z,12.03
2022-10-30T06:15:57.141Z,12.01
2022-10-30T06:18:23.807Z,12.02
2022-10-30T06:20:50.283Z,12.06
2022-10-30T06:23:16.825Z,12.01
2022-10-30T06:25:43.401Z,11.98
2022-10-30T06:28:11.515Z,12.06
2022-10-30T06:30:38.095Z,12.12
2022-10-30T06:33:05.365Z,12.09
2022-10-30T06:35:31.842Z,12.11
2022-10-30T06:38:00.119Z,12.08
2022-10-30T06:40:27.829Z,12.09
2022-10-30T06:42:54.566Z,12.04
2022-10-30T06:45:23.577Z,11.99
2022-10-30T06:47:50.309Z,12.09
2022-10-30T06:50:19.092Z,12.04
2022-10-30T06:52:45.547Z,12.03
2022-10-30T06:55:12.777Z,12.05
2022-10-30T06:57:39.373Z,12.07
2022-10-30T07:00:07.305Z,12.07
2022-10-30T07:02:34.266Z,12.09
2022-10-30T07:05:00.778Z,12.13
2022-10-30T07:07:27.220Z,12.14
2022-10-30T07:09:53.648Z,12.11
2022-10-30T07:12:20.338Z,12.15
2022-10-30T07:14:46.718Z,12.14
2022-10-30T07:17:13.113Z,12.18
2022-10-30T07:22:20.271Z,12.14
2022-10-30T07:24:46.664Z,12.20
2022-10-30T07:27:13.067Z,12.27
2022-10-30T07:29:39.466Z,12.26
2022-10-30T07:32:05.875Z,12.32
2022-10-30T07:34:32.455Z,12.30
2022-10-30T07:36:58.903Z,12.31
2022-10-30T07:39:25.310Z,12.37
2022-10-30T07:41:51.703Z,12.42
2022-10-30T07:44:18.279Z,12.40
2022-10-30T07:46:44.776Z,12.50
2022-10-30T07:49:11.224Z,12.53
2022-10-30T07:51:38.138Z,12.57
2022-10-30T07:54:04.571Z,12.58
2022-10-30T07:56:31.054Z,12.64
2022-10-30T07:58:57.593Z,12.66
2022-10-30T08:01:24.083Z,12.71
2022-10-30T08:03:50.668Z,12.78
2022-10-30T08:06:20.063Z,12.82
2022-10-30T08:08:49.480Z,12.89
2022-10-30T08:11:15.884Z,12.94
2022-10-30T08:13:42.275Z,13.01
2022-10-30T08:16:08.718Z,13.06
2022-10-30T08:18:35.389Z,13.11
2022-10-30T08:21:01.882Z,13.17
2022-10-30T08:23:28.289Z,13.28
2022-10-30T08:26:00.181Z,13.33
2022-10-30T08:28:31.597Z,13.38
2022-10-30T08:31:00.645Z,13.44
2022-10-30T08:33:27.050Z,13.52
2022-10-30T08:35:56.613Z,13.58
2022-10-30T08:38:23.816Z,13.66
2022-10-30T08:40:50.246Z,13.79
2022-10-30T08:43:16.819Z,13.88
2022-10-30T08:45:43.454Z,14.01
2022-10-30T08:48:15.425Z,14.00
2022-10-30T08:50:42.377Z,14.03
2022-10-30T08:53:11.967Z,14.08
2022-10-30T08:55:38.474Z,14.12
2022-10-30T08:58:04.940Z,14.10
2022-10-30T09:00:31.468Z,14.30
2022-10-30T09:02:58.378Z,14.28
2022-10-30T09:05:25.369Z,14.33
2022-10-30T09:08:01.142Z,14.35
2022-10-30T09:10:28.397Z,14.42
2022-10-30T09:12:59.160Z,14.53
2022-10-30T09:15:26.531Z,14.53
2022-10-30T09:18:01.598Z,14.58
2022-10-30T09:20:29.500Z,14.63
2022-10-30T09:22:56.625Z,14.79
2022-10-30T09:25:23.368Z,14.82
2022-10-30T09:27:49.784Z,14.89
2022-10-30T09:30:16.322Z,14.99
2022-10-30T09:32:42.808Z,15.13
2022-10-30T09:35:10.316Z,15.22
2022-10-30T09:37:37.971Z,15.30
2022-10-30T09:40:05.597Z,15.36
2022-10-30T09:42:44.632Z,15.38
2022-10-30T09:45:33.962Z,15.41
2022-10-30T09:48:19.418Z,15.43
2022-10-30T09:51:04.025Z,15.40
2022-10-30T09:53:30.480Z,15.39
2022-10-30T09:56:08.419Z,15.47
2022-10-30T09:58:47.046Z,15.67
2022-10-30T10:01:22.803Z,15.71
2022-10-30T10:04:06.163Z,15.83
2022-10-30T10:06:34.463Z,16.00
2022-10-30T10:09:06.338Z,16.15
2022-10-30T10:11:37.096Z,16.10
2022-10-30T10:14:13.991Z,16.19
2022-10-30T10:16:43.358Z,16.06
2022-10-30T10:19:30.201Z,16.10
2022-10-30T10:22:01.844Z,16.05
2022-10-30T10:24:30.906Z,16.14
2022-10-30T10:27:06.410Z,16.27
2022-10-30T10:30:25.634Z,16.34
2022-10-30T10:33:33.471Z,16.36
2022-10-30T10:36:20.112Z,16.32
2022-10-30T10:38:52.492Z,16.43
2022-10-30T10:41:39.701Z,16.41
2022-10-30T10:44:21.339Z,16.52
2022-10-30T10:47:08.622Z,16.87
2022-10-30T10:49:40.164Z,16.97
2022-10-30T10:52:16.021Z,17.01
2022-10-30T10:54:44.764Z,16.97
2022-10-30T10:57:33.530Z,17.13
2022-10-30T11:00:08.557Z,17.10
2022-10-30T11:03:07.395Z,17.31
2022-10-30T11:05:56.981Z,17.23
2022-10-30T11:08:27.414Z,17.40
2022-10-30T11:11:05.187Z,17.49
2022-10-30T11:13:41.416Z,17.64
2022-10-30T11:16:26.508Z,17.66
2022-10-30T11:18:59.733Z,17.82
2022-10-30T11:21:29.278Z,17.64
2022-10-30T11:23:55.690Z,17.52
2022-10-30T11:26:22.270Z,17.51
2022-10-30T11:29:13.932Z,17.52
2022-10-30T11:31:44.665Z,17.52
2022-10-30T11:34:17.952Z,17.45
2022-10-30T11:36:49.818Z,17.47
2022-10-30T11:39:30.356Z,17.45
2022-10-30T11:42:03.311Z,17.53
2022-10-30T11:44:42.574Z,17.85
2022-10-30T11:47:11.774Z,17.76
2022-10-30T11:49:52.863Z,17.74
2022-10-30T11:52:22.542Z,17.79
2022-10-30T11:54:54.362Z,17.76
2022-10-30T11:57:37.095Z,17.89
2022-10-30T12:00:08.106Z,17.85
2022-10-30T12:02:43.887Z,17.78
2022-10-30T12:05:25.584Z,17.75
2022-10-30T12:07:53.325Z,17.75
2022-10-30T12:10:27.664Z,17.74
2022-10-30T12:12:54.484Z,17.82
2022-10-30T12:15:25.554Z,17.85
2022-10-30T12:18:00.255Z,17.99
2022-10-30T12:20:28.271Z,18.03
2022-10-30T12:22:55.529Z,18.18
2022-10-30T12:25:32.124Z,18.31
2022-10-30T12:28:07.978Z,18.20
2022-10-30T12:30:49.767Z,18.14
2022-10-30T12:33:23.023Z,18.20
2022-10-30T12:35:59.250Z,18.15
2022-10-30T12:38:30.003Z,18.26
2022-10-30T12:41:05.812Z,18.25
2022-10-30T12:43:36.348Z,18.21
2022-10-30T12:46:35.919Z,18.28
2022-10-30T12:49:32.328Z,18.36
2022-10-30T12:52:05.417Z,18.43
2022-10-30T12:54:58.234Z,18.61
2022-10-30T12:57:28.693Z,18.72
2022-10-30T13:00:14.638Z,19.01
2022-10-30T13:03:01.261Z,19.08
2022-10-30T13:08:41.581Z,19.24
2022-10-30T13:11:28.594Z,19.25
2022-10-30T13:14:00.088Z,19.16
2022-10-30T13:16:29.606Z,19.03
2022-10-30T13:18:58.084Z,18.92
2022-10-30T13:21:30.865Z,18.80
2022-10-30T13:24:03.282Z,18.70
2022-10-30T13:26:42.377Z,18.63
2022-10-30T13:29:17.876Z,18.60
2022-10-30T13:32:11.425Z,18.61
2022-10-30T13:34:46.183Z,18.58
2022-10-30T13:37:42.164Z,18.67
2022-10-30T13:40:27.864Z,18.57
2022-10-30T13:43:02.247Z,18.52
2022-10-30T13:45:55.070Z,18.47
2022-10-30T13:48:37.059Z,18.39
2022-10-30T13:51:28.041Z,18.47
2022-10-30T13:54:37.789Z,18.39
2022-10-30T13:57:25.062Z,18.35
2022-10-30T14:00:14.618Z,18.31
2022-10-30T14:02:47.280Z,18.27
2022-10-30T14:05:38.618Z,18.25
2022-10-30T14:08:13.958Z,18.20
2022-10-30T14:10:40.313Z,18.19
2022-10-30T14:13:44.686Z,18.15
2022-10-30T14:16:37.406Z,18.13
2022-10-30T14:19:12.553Z,18.10
2022-10-30T14:21:54.969Z,18.08
2022-10-30T14:27:05.561Z,18.03
2022-10-30T14:29:35.510Z,18.01
2022-10-30T14:32:11.782Z,18.00
2022-10-30T14:34:42.484Z,17.97
2022-10-30T14:37:09.857Z,17.98
2022-10-30T14:39:43.992Z,17.97
2022-10-30T14:42:10.345Z,17.94
2022-10-30T14:45:16.856Z,17.91
2022-10-30T14:47:59.725Z,17.91
2022-10-30T14:50:26.082Z,17.87
2022-10-30T14:52:52.988Z,17.84
2022-10-30T14:55:26.462Z,17.80
2022-10-30T14:57:54.276Z,17.79
2022-10-30T15:00:23.621Z,17.76
2022-10-30T15:03:12.054Z,17.72
2022-10-30T15:05:58.703Z,17.67
2022-10-30T15:08:51.335Z,17.64
2022-10-30T15:11:37.495Z,17.59
2022-10-30T15:14:21.455Z,17.57
2022-10-30T15:16:59.169Z,17.55
2022-10-30T15:19:25.945Z,17.50
2022-10-30T15:21:54.745Z,17.47
2022-10-30T15:24:32.180Z,17.44
2022-10-30T15:27:00.972Z,17.41
2022-10-30T15:29:33.300Z,17.40
2022-10-30T15:32:17.927Z,17.39
2022-10-30T15:34:55.548Z,17.36
2022-10-30T15:37:22.843Z,17.33
2022-10-30T15:39:49.357Z,17.30
2022-10-30T15:42:16.406Z,17.28
2022-10-30T15:44:45.569Z,17.27
2022-10-30T15:47:17.278Z,17.26
2022-10-30T15:49:55.107Z,17.21
2022-10-30T15:52:27.991Z,17.19
2022-10-30T15:55:07.670Z,17.13
2022-10-30T16:00:31.551Z,17.01
2022-10-30T16:03:15.986Z,16.99
2022-10-30T16:05:42.786Z,16.95
2022-10-30T16:08:22.903Z,16.90
2022-10-30T16:10:53.048Z,16.86
2022-10-30T16:13:25.051Z,16.82
2022-10-30T16:15:51.574Z,16.78
2022-10-30T16:18:31.484Z,16.74
2022-10-30T16:21:02.913Z,16.69
2022-10-30T16:23:30.442Z,16.62
2022-10-30T16:25:59.213Z,16.59
2022-10-30T16:28:35.016Z,16.55
2022-10-30T16:31:15.926Z,16.48
2022-10-30T16:33:44.574Z,16.46
2022-10-30T16:36:17.003Z,16.44
2022-10-30T16:38:46.945Z,16.39
2022-10-30T16:41:13.789Z,16.34
2022-10-30T16:43:44.567Z,16.31
2022-10-30T16:46:14.156Z,16.25
2022-10-30T16:48:46.420Z,16.22
2022-10-30T16:51:17.915Z,16.22
2022-10-30T16:53:48.815Z,16.17
2022-10-30T16:56:23.983Z,16.10
2022-10-30T16:58:52.329Z,16.05
2022-10-30T17:01:24.025Z,16.00
2022-10-30T17:03:50.710Z,15.94
2022-10-30T17:06:35.309Z,15.90
2022-10-30T17:09:10.846Z,15.83
2022-10-30T17:11:41.996Z,15.80
2022-10-30T17:14:22.422Z,15.66
2022-10-30T17:16:57.890Z,15.61
2022-10-30T17:19:30.354Z,15.60
2022-10-30T17:22:03.929Z,15.52
2022-10-30T17:24:35.907Z,15.49
2022-10-30T17:27:05.690Z,15.44
2022-10-30T17:29:38.098Z,15.38
2022-10-30T17:32:06.518Z,15.35
2022-10-30T17:34:38.994Z,15.38
2022-10-30T17:37:05.406Z,15.36
2022-10-30T17:39:31.870Z,15.32
2022-10-30T17:41:58.261Z,15.30
2022-10-30T17:44:26.327Z,15.26
2022-10-30T17:46:54.613Z,15.23
2022-10-30T17:49:30.199Z,15.28
2022-10-30T17:51:57.115Z,15.21
2022-10-30T17:54:24.002Z,15.17
2022-10-30T17:56:50.508Z,15.15
2022-10-30T17:59:17.111Z,15.21
2022-10-30T18:01:43.680Z,15.12
2022-10-30T18:04:20.926Z,15.10
2022-10-30T18:06:48.447Z,15.01
2022-10-30T18:09:15.088Z,15.01
2022-10-30T18:11:41.504Z,15.04
2022-10-30T18:14:10.443Z,15.03
2022-10-30T18:16:36.914Z,15.02
2022-10-30T18:19:03.363Z,14.89
2022-10-30T18:21:31.241Z,14.80
2022-10-30T18:23:57.873Z,14.77
2022-10-30T18:26:26.921Z,14.76
2022-10-30T18:28:54.209Z,14.74
2022-10-30T18:31:23.279Z,14.75
2022-10-30T18:33:49.741Z,14.76
2022-10-30T18:36:21.734Z,14.72
2022-10-30T18:38:48.875Z,14.63
2022-10-30T18:41:19.322Z,14.56
2022-10-30T18:43:47.254Z,14.56
2022-10-30T18:46:15.306Z,14.61
2022-10-30T18:48:41.987Z,14.63
2022-10-30T18:51:19.203Z,14.57
2022-10-30T18:53:51.655Z,14.59
2022-10-30T18:56:29.569Z,14.52
2022-10-30T18:59:01.810Z,14.52
2022-10-30T19:01:32.059Z,14.52
2022-10-30T19:04:00.993Z,14.46
2022-10-30T19:06:28.032Z,14.53
2022-10-30T19:08:54.597Z,14.46
2022-10-30T19:11:25.133Z,14.45
2022-10-30T19:13:53.047Z,14.53
2022-10-30T19:16:20.417Z,14.50
2022-10-30T19:18:47.463Z,14.48
2022-10-30T19:21:16.464Z,14.48
2022-10-30T19:23:42.910Z,14.45
2022-10-30T19:28:41.031Z,14.35
2022-10-30T19:31:12.647Z,14.40
2022-10-30T19:33:39.114Z,14.39
2022-10-30T19:36:05.833Z,14.32
2022-10-30T19:38:32.888Z,14.32
2022-10-30T19:40:59.856Z,14.38
2022-10-30T19:43:26.329Z,14.37
2022-10-30T19:45:56.678Z,14.34
2022-10-30T19:48:47.817Z,14.35
2022-10-30T19:51:11.914Z,14.29
2022-10-30T19:53:39.762Z,14.29
2022-10-30T19:56:07.086Z,14.25
2022-10-30T19:58:33.602Z,14.24
2022-10-30T20:01:00.079Z,14.27
2022-10-30T20:03:26.598Z,14.23
2022-10-30T20:05:54.140Z,14.23
2022-10-30T20:08:22.865Z,14.23
2022-10-30T20:10:52.810Z,14.26
2022-10-30T20:13:20.599Z,14.20
2022-10-30T20:15:47.349Z,14.10
2022-10-30T20:18:19.134Z,14.09
2022-10-30T20:21:09.925Z,14.05
2022-10-30T20:23:36.919Z,13.98
2022-10-30T20:26:28.045Z,14.01
2022-10-30T20:28:54.940Z,13.90
2022-10-30T20:31:21.931Z,13.93
2022-10-30T20:33:48.369Z,13.90
2022-10-30T20:36:14.939Z,13.80
2022-10-30T20:38:41.433Z,13.85
2022-10-30T20:41:20.974Z,13.81
2022-10-30T20:43:47.428Z,13.76
2022-10-30T20:46:13.859Z,13.75
2022-10-30T20:48:40.264Z,13.80
2022-10-30T20:51:06.761Z,13.76
2022-10-30T20:53:34.034Z,13.68
2022-10-30T20:56:00.471Z,13.70
2022-10-30T20:58:27.181Z,13.65
2022-10-30T21:00:55.562Z,13.56
2022-10-30T21:03:22.155Z,13.55
2022-10-30T21:05:58.496Z,13.49
2022-10-30T21:08:26.519Z,13.49
2022-10-30T21:10:53.114Z,13.45
2022-10-30T21:13:19.575Z,13.47
2022-10-30T21:15:45.976Z,13.45
2022-10-30T21:18:13.119Z,13.38
2022-10-30T21:20:40.992Z,13.32
2022-10-30T21:23:08.103Z,13.27
2022-10-30T21:25:35.622Z,13.33
2022-10-30T21:28:02.581Z,13.35
2022-10-30T21:30:29.357Z,13.24
2022-10-30T21:32:55.805Z,13.26
2022-10-30T21:35:22.285Z,13.26
2022-10-30T21:37:48.916Z,13.21
2022-10-30T21:40:15.386Z,13.22
2022-10-30T21:42:41.865Z,13.12
2022-10-30T21:45:09.096Z,13.19
2022-10-30T21:47:35.669Z,13.17
2022-10-30T21:50:06.028Z,13.16
2022-10-30T21:52:36.016Z,13.07
2022-10-30T21:55:02.508Z,13.06
2022-10-30T21:57:29.410Z,13.15
2022-10-30T21:59:58.725Z,13.14
2022-10-30T22:02:28.275Z,13.13
2022-10-30T22:04:54.791Z,13.14
2022-10-30T22:07:21.353Z,13.10
2022-10-30T22:09:47.742Z,13.06
2022-10-30T22:12:17.178Z,12.97
2022-10-30T22:14:43.590Z,13.02
2022-10-30T22:17:10.062Z,12.96
2022-10-30T22:19:36.464Z,12.83
2022-10-30T22:22:02.901Z,12.80
2022-10-30T22:24:29.315Z,12.84
2022-10-30T22:26:55.716Z,12.89
2022-10-30T22:29:22.137Z,12.91
2022-10-30T22:31:49.271Z,12.91
2022-10-30T22:34:15.683Z,12.89
2022-10-30T22:36:42.200Z,12.91
2022-10-30T22:39:12.520Z,12.92
2022-10-30T22:41:39.701Z,12.84
2022-10-30T22:44:08.741Z,12.84
2022-10-30T22:46:35.905Z,12.86
2022-10-30T22:49:03.030Z,12.89
2022-10-30T22:51:32.361Z,12.92
2022-10-30T22:54:01.236Z,12.76
2022-10-30T22:56:31.430Z,12.76
2022-10-30T22:59:01.069Z,12.82
2022-10-30T23:01:32.644Z,12.77
2022-10-30T23:04:01.625Z,12.70
2022-10-30T23:06:29.775Z,12.67
2022-10-30T23:08:59.207Z,12.72
2022-10-30T23:11:26.710Z,12.76
2022-10-30T23:13:53.494Z,12.68
2022-10-30T23:16:22.392Z,12.63
2022-10-30T23:18:49.800Z,12.64
2022-10-30T23:21:19.045Z,12.60
2022-10-30T23:23:46.087Z,12.61
2022-10-30T23:26:18.371Z,12.62
2022-10-30T23:28:45.958Z,12.70
2022-10-30T23:31:23.734Z,12.74
2022-10-30T23:33:51.981Z,12.81
2022-10-30T23:36:19.977Z,12.84
2022-10-30T23:38:52.586Z,12.90
2022-10-30T23:41:20.928Z,12.89
2022-10-30T23:43:47.338Z,12.87
2022-10-30T23:46:13.793Z,12.88
2022-10-30T23:48:40.217Z,12.88
2022-10-30T23:51:08.082Z,12.87
2022-10-30T23:53:34.944Z,12.82
2022-10-30T23:56:02.440Z,12.84
2022-10-30T23:58:28.862Z,12.64
